Time;durP1;ratioP1;P1;durP2;ratioP2;P2;SDS_P1;SDS_P2;PMS_P1;PMS_P2;Temp;Humidity;BMP_temperature;BMP_pressure;BME280_temperature;BME280_humidity;BME280_pressure;Samples;Min_cycle;Max_cycle;Signal;HPM_P1;HPM_P2
2022/11/21 00:01:18;;;;;;;7.30;1.95;;;6.10;99.90;;;;;;4920875;29;20435;-70
2022/11/21 00:03:44;;;;;;;8.48;1.67;;;6.10;99.90;;;;;;4916508;29;20100;-70
2022/11/21 00:06:10;;;;;;;9.35;1.55;;;6.10;99.90;;;;;;4908255;29;20032;-73
2022/11/21 00:08:35;;;;;;;6.10;1.55;;;6.10;99.90;;;;;;4918517;29;20408;-72
2022/11/21 00:11:01;;;;;;;5.18;2.03;;;6.10;99.90;;;;;;4913128;29;20471;-72
2022/11/21 00:13:27;;;;;;;8.45;1.98;;;6.10;99.90;;;;;;4904902;29;20306;-72
2022/11/21 00:15:52;;;;;;;4.13;1.40;;;6.00;99.90;;;;;;4908546;29;20478;-72
2022/11/21 00:18:18;;;;;;;7.43;1.48;;;6.00;99.90;;;;;;4921540;29;20036;-71
2022/11/21 00:20:43;;;;;;;9.68;1.58;;;5.90;99.90;;;;;;4932139;28;20036;-71
2022/11/21 00:23:10;;;;;;;4.07;1.30;;;5.90;99.90;;;;;;4908178;29;20070;-71
2022/11/21 00:25:36;;;;;;;7.35;2.15;;;5.90;99.90;;;;;;4922129;29;20039;-71
2022/11/21 00:28:02;;;;;;;6.22;1.50;;;5.70;99.90;;;;;;4916169;29;20028;-71
2022/11/21 00:30:28;;;;;;;6.35;1.75;;;5.70;99.90;;;;;;4927640;28;20309;-71
2022/11/21 00:32:53;;;;;;;10.98;2.70;;;5.70;99.90;;;;;;4922639;29;20110;-71
2022/11/21 00:35:19;;;;;;;10.63;1.88;;;5.60;99.90;;;;;;4921610;29;20043;-71
2022/11/21 00:37:47;;;;;;;11.45;2.05;;;5.60;99.90;;;;;;4922924;29;20122;-71
2022/11/21 00:40:13;;;;;;;8.32;2.08;;;5.50;99.90;;;;;;4920721;29;20094;-71
2022/11/21 00:42:38;;;;;;;9.85;2.03;;;5.40;99.90;;;;;;4923769;29;20040;-71
2022/11/21 00:45:04;;;;;;;9.55;2.00;;;5.40;99.90;;;;;;4922949;29;20032;-71
2022/11/21 00:47:30;;;;;;;10.43;1.75;;;5.40;99.90;;;;;;4922200;29;20128;-71
2022/11/21 00:49:56;;;;;;;9.52;1.65;;;5.50;99.90;;;;;;4915442;29;20508;-71
2022/11/21 00:52:21;;;;;;;6.47;1.50;;;5.50;99.90;;;;;;4922729;29;20500;-72
2022/11/21 00:54:47;;;;;;;9.93;1.55;;;5.30;99.90;;;;;;4922178;29;20062;-71
2022/11/21 00:57:12;;;;;;;6.55;1.63;;;5.30;99.90;;;;;;4921903;29;20028;-72
2022/11/21 00:59:38;;;;;;;8.70;1.58;;;5.30;99.90;;;;;;4921035;29;20548;-71
2022/11/21 01:02:04;;;;;;;7.93;1.73;;;5.30;99.90;;;;;;4919839;29;20030;-71
2022/11/21 01:04:34;;;;;;;8.18;1.55;;;5.30;99.90;;;;;;4918353;29;20455;-71
2022/11/21 01:07:00;;;;;;;6.50;1.55;;;5.30;99.90;;;;;;4913872;29;20445;-71
2022/11/21 01:09:27;;;;;;;10.55;1.80;;;5.20;99.90;;;;;;4922413;29;20440;-71
2022/11/21 01:11:53;;;;;;;8.70;1.73;;;5.20;99.90;;;;;;4919490;29;20051;-71
2022/11/21 01:14:19;;;;;;;8.23;1.55;;;5.20;99.90;;;;;;4922469;29;20411;-71
2022/11/21 01:16:44;;;;;;;13.68;1.80;;;5.20;99.90;;;;;;4921830;29;20031;-71
2022/11/21 01:19:10;;;;;;;11.68;1.98;;;5.20;99.90;;;;;;4921900;29;20110;-71
2022/11/21 01:21:36;;;;;;;6.63;1.80;;;5.20;99.90;;;;;;4921141;29;20023;-72
2022/11/21 01:24:02;;;;;;;14.35;2.30;;;5.20;99.90;;;;;;4921140;29;20036;-71
2022/11/21 01:26:29;;;;;;;11.73;2.00;;;5.20;99.90;;;;;;4920047;29;20136;-71
2022/11/21 01:28:56;;;;;;;9.65;2.38;;;5.30;99.90;;;;;;4921506;29;20067;-71
2022/11/21 01:31:25;;;;;;;11.57;2.75;;;5.30;99.90;;;;;;4921758;29;20036;-71
2022/11/21 01:33:51;;;;;;;9.00;2.22;;;5.30;99.90;;;;;;4919221;29;20384;-72
2022/11/21 01:36:21;;;;;;;13.48;2.97;;;5.40;99.90;;;;;;4922627;29;20107;-71
2022/11/21 01:38:49;;;;;;;10.02;2.15;;;5.40;99.90;;;;;;4919760;29;20131;-71
2022/11/21 01:41:19;;;;;;;11.32;2.53;;;5.40;99.90;;;;;;4920369;29;21183;-71
2022/11/21 01:43:46;;;;;;;12.05;2.42;;;5.40;99.90;;;;;;4921215;29;20352;-71
2022/11/21 01:46:14;;;;;;;7.57;2.35;;;5.40;99.90;;;;;;4913144;29;20046;-70
2022/11/21 01:49:06;;;;;;;10.63;2.58;;;5.50;99.90;;;;;;4925130;28;20044;-71
2022/11/21 01:51:53;;;;;;;9.30;2.40;;;5.50;99.90;;;;;;4917949;29;20043;-71
2022/11/21 01:54:36;;;;;;;6.68;2.20;;;5.50;99.90;;;;;;4921371;29;20048;-71
2022/11/21 01:57:28;;;;;;;11.32;2.40;;;5.60;99.90;;;;;;4917368;29;20484;-71
2022/11/21 02:00:23;;;;;;;7.38;2.50;;;5.60;99.90;;;;;;4921523;29;20066;-71
2022/11/21 02:02:52;;;;;;;6.50;1.80;;;5.60;99.90;;;;;;4918917;29;20428;-71
2022/11/21 02:05:28;;;;;;;9.18;2.40;;;5.50;99.90;;;;;;4901361;29;20032;-71
2022/11/21 02:08:01;;;;;;;9.13;1.92;;;5.60;99.90;;;;;;4916585;29;20493;-71
2022/11/21 02:10:27;;;;;;;7.85;2.10;;;5.50;99.90;;;;;;4912078;29;20113;-71
2022/11/21 02:12:55;;;;;;;7.15;2.22;;;5.50;99.90;;;;;;4920854;29;20039;-71
2022/11/21 02:15:24;;;;;;;7.43;2.03;;;5.50;99.90;;;;;;4919593;29;20039;-73
2022/11/21 02:17:50;;;;;;;7.90;1.83;;;5.40;99.90;;;;;;4918425;29;20554;-72
2022/11/21 02:20:18;;;;;;;12.07;3.00;;;5.40;99.90;;;;;;4917122;29;20448;-71
2022/11/21 02:23:12;;;;;;;9.95;1.95;;;5.30;99.90;;;;;;4922130;29;20481;-71
2022/11/21 02:25:41;;;;;;;6.35;1.92;;;5.40;99.90;;;;;;4912473;29;20849;-71
2022/11/21 02:28:10;;;;;;;7.00;2.10;;;5.40;99.90;;;;;;4920850;29;20110;-71
2022/11/21 02:30:39;;;;;;;7.30;1.80;;;5.40;99.90;;;;;;4919428;29;20039;-71
2022/11/21 02:33:05;;;;;;;11.18;1.92;;;5.40;99.90;;;;;;4917582;29;20538;-71
2022/11/21 02:35:32;;;;;;;6.15;2.10;;;5.40;99.90;;;;;;4914217;29;20039;-71
2022/11/21 02:38:32;;;;;;;7.80;2.10;;;5.40;99.90;;;;;;4916196;29;20534;-71
2022/11/21 02:41:04;;;;;;;7.50;2.03;;;5.40;99.90;;;;;;4912470;29;20039;-71
2022/11/21 02:43:37;;;;;;;6.35;1.90;;;5.20;99.90;;;;;;4919296;29;20238;-71
2022/11/21 02:46:02;;;;;;;7.45;1.80;;;5.10;99.90;;;;;;4918822;29;20043;-72
2022/11/21 02:48:28;;;;;;;5.70;2.05;;;5.00;99.90;;;;;;4912218;29;20036;-71
2022/11/21 02:50:54;;;;;;;4.60;1.80;;;5.00;99.90;;;;;;4917288;29;20049;-71
2022/11/21 02:53:19;;;;;;;4.57;1.63;;;5.00;99.90;;;;;;4915153;29;20051;-70
2022/11/21 02:55:45;;;;;;;7.80;2.10;;;5.10;99.90;;;;;;4916118;29;20127;-71
2022/11/21 02:58:11;;;;;;;6.72;2.00;;;5.10;99.90;;;;;;4914789;29;20072;-71
2022/11/21 03:00:38;;;;;;;9.13;2.80;;;5.10;99.90;;;;;;4912542;29;20082;-71
2022/11/21 03:03:04;;;;;;;8.70;4.05;;;5.00;99.90;;;;;;4915378;29;20174;-71
2022/11/21 03:05:30;;;;;;;8.00;4.13;;;5.00;99.90;;;;;;4919048;29;20118;-70
2022/11/21 03:07:56;;;;;;;9.45;4.30;;;5.00;99.90;;;;;;4919704;29;20035;-71
2022/11/21 03:10:21;;;;;;;9.80;3.40;;;5.00;99.90;;;;;;4918297;29;20035;-71
2022/11/21 03:12:47;;;;;;;12.13;3.28;;;5.00;99.90;;;;;;4916756;29;20146;-71
2022/11/21 03:15:14;;;;;;;11.27;2.70;;;5.00;99.90;;;;;;4915521;29;20043;-71
2022/11/21 03:17:41;;;;;;;7.05;2.45;;;5.00;99.90;;;;;;4923831;29;20042;-71
2022/11/21 03:20:07;;;;;;;8.90;2.58;;;5.00;99.90;;;;;;4918349;29;20031;-71
2022/11/21 03:22:33;;;;;;;8.70;2.72;;;5.00;99.90;;;;;;4917921;29;20024;-71
2022/11/21 03:24:59;;;;;;;5.82;2.30;;;5.10;99.90;;;;;;4918409;29;20058;-71
2022/11/21 03:27:25;;;;;;;6.75;1.88;;;5.10;99.90;;;;;;4915422;29;20024;-71
2022/11/21 03:29:50;;;;;;;7.13;2.28;;;5.10;99.90;;;;;;4918525;29;20400;-71
2022/11/21 03:32:16;;;;;;;12.15;2.33;;;5.20;99.90;;;;;;4919501;29;20178;-71
2022/11/21 03:34:42;;;;;;;5.18;2.55;;;5.20;99.90;;;;;;4918106;29;20055;-71
2022/11/21 03:37:07;;;;;;;7.47;1.92;;;5.20;99.90;;;;;;4918493;29;20039;-71
2022/11/21 03:39:33;;;;;;;10.88;2.13;;;5.30;99.90;;;;;;4917943;29;20082;-71
2022/11/21 03:41:59;;;;;;;6.50;2.58;;;5.30;99.90;;;;;;4919059;29;20389;-71
2022/11/21 03:44:25;;;;;;;6.00;2.35;;;5.30;99.90;;;;;;4920243;29;20039;-71
2022/11/21 03:46:50;;;;;;;10.00;2.55;;;5.30;99.90;;;;;;4920066;29;20067;-71
2022/11/21 03:49:16;;;;;;;6.55;2.38;;;5.40;99.90;;;;;;4918880;29;20115;-71
2022/11/21 03:51:43;;;;;;;5.78;2.17;;;5.30;99.90;;;;;;4914279;29;20500;-71
2022/11/21 03:54:09;;;;;;;5.30;2.05;;;5.30;99.90;;;;;;4915292;29;20091;-71
2022/11/21 03:56:34;;;;;;;4.03;1.90;;;5.30;99.90;;;;;;4923213;29;20514;-71
2022/11/21 03:59:00;;;;;;;7.88;2.28;;;5.40;99.90;;;;;;4923905;29;20130;-71
2022/11/21 04:01:26;;;;;;;6.32;2.85;;;5.40;99.90;;;;;;4922862;29;20028;-70
2022/11/21 04:03:52;;;;;;;5.22;2.30;;;5.40;99.90;;;;;;4922272;29;20275;-71
2022/11/21 04:06:20;;;;;;;11.52;2.33;;;5.40;99.90;;;;;;4922629;29;20028;-71
2022/11/21 04:08:46;;;;;;;8.05;2.20;;;5.40;99.90;;;;;;4922654;29;20147;-71
2022/11/21 04:11:11;;;;;;;12.30;3.20;;;5.50;99.90;;;;;;4935965;28;20220;-71
2022/11/21 04:13:37;;;;;;;6.95;2.25;;;5.50;99.90;;;;;;4916633;29;20032;-71
2022/11/21 04:16:03;;;;;;;6.18;2.00;;;5.60;99.90;;;;;;4922071;29;20550;-72
2022/11/21 04:18:30;;;;;;;6.55;2.17;;;5.50;99.90;;;;;;4911371;29;20028;-73
2022/11/21 04:21:00;;;;;;;5.22;2.13;;;5.30;99.90;;;;;;4903387;29;20032;-72
2022/11/21 04:23:26;;;;;;;5.78;2.30;;;5.30;99.90;;;;;;4913731;29;20122;-71
2022/11/21 04:25:52;;;;;;;6.03;2.03;;;5.30;99.90;;;;;;4920120;29;20058;-72
2022/11/21 04:28:18;;;;;;;7.55;2.00;;;5.40;99.90;;;;;;4917870;29;20028;-72
2022/11/21 04:30:44;;;;;;;5.30;1.90;;;5.30;99.90;;;;;;4919947;29;20035;-72
2022/11/21 04:33:12;;;;;;;6.32;2.13;;;5.20;99.90;;;;;;4918989;29;20432;-71
2022/11/21 04:35:38;;;;;;;5.90;2.03;;;5.20;99.90;;;;;;4920792;29;20031;-71
2022/11/21 04:38:03;;;;;;;8.30;2.15;;;5.10;99.90;;;;;;4921137;29;20030;-72
2022/11/21 04:40:29;;;;;;;4.40;2.13;;;4.90;99.90;;;;;;4919813;29;20439;-71
2022/11/21 04:42:55;;;;;;;6.25;1.90;;;4.90;99.90;;;;;;4920183;29;20498;-72
2022/11/21 04:45:20;;;;;;;6.70;2.45;;;4.80;99.90;;;;;;4923044;29;20037;-72
2022/11/21 04:47:46;;;;;;;6.22;2.25;;;4.80;99.90;;;;;;4922914;29;20115;-72
2022/11/21 04:50:14;;;;;;;9.70;2.30;;;4.80;99.90;;;;;;4915791;29;20039;-72
2022/11/21 04:52:40;;;;;;;6.22;2.20;;;4.80;99.90;;;;;;4920609;29;20110;-71
2022/11/21 04:55:07;;;;;;;8.23;2.58;;;4.80;99.90;;;;;;4921296;29;20035;-72
2022/11/21 04:57:33;;;;;;;6.68;2.47;;;4.80;99.90;;;;;;4920497;29;20115;-72
2022/11/21 04:59:59;;;;;;;6.28;2.30;;;4.80;99.90;;;;;;4922105;29;20151;-72
2022/11/21 05:02:25;;;;;;;9.70;2.20;;;4.80;99.90;;;;;;4921301;29;20028;-73
2022/11/21 05:04:50;;;;;;;7.10;2.45;;;4.70;99.90;;;;;;4923092;29;20721;-72
2022/11/21 05:07:16;;;;;;;7.13;2.50;;;4.70;99.90;;;;;;4921336;29;20036;-72
2022/11/21 05:09:42;;;;;;;5.22;2.55;;;4.70;99.90;;;;;;4922048;29;20443;-72
2022/11/21 05:14:53;;;;;;;7.50;2.10;;;4.60;99.90;;;;;;4921136;29;20045;-72
2022/11/21 05:17:19;;;;;;;5.47;2.22;;;4.70;99.90;;;;;;4917269;29;20036;-71
2022/11/21 05:19:44;;;;;;;10.98;2.92;;;4.70;99.90;;;;;;4913231;29;20044;-72
2022/11/21 05:22:10;;;;;;;7.97;2.17;;;4.60;99.90;;;;;;4906171;29;20061;-72
2022/11/21 05:24:35;;;;;;;8.52;1.90;;;4.50;99.90;;;;;;4920074;29;20031;-72
2022/11/21 05:27:01;;;;;;;4.90;2.42;;;4.60;99.90;;;;;;4918539;29;20036;-72
2022/11/21 05:29:27;;;;;;;9.02;2.92;;;4.60;99.90;;;;;;4904214;29;20036;-72
2022/11/21 05:31:52;;;;;;;6.57;2.22;;;4.60;99.90;;;;;;4913057;29;20493;-72
2022/11/21 05:34:18;;;;;;;6.95;2.55;;;4.60;99.90;;;;;;4917395;29;20046;-72
2022/11/21 05:36:43;;;;;;;10.45;2.53;;;4.60;99.90;;;;;;4918636;29;20039;-73
2022/11/21 05:39:09;;;;;;;9.07;2.90;;;4.70;99.90;;;;;;4920492;29;20086;-73
2022/11/21 05:41:35;;;;;;;8.52;2.17;;;4.70;99.90;;;;;;4921332;29;20035;-72
2022/11/21 05:44:00;;;;;;;11.85;2.15;;;4.80;99.90;;;;;;4919412;29;20451;-72
2022/11/21 05:46:26;;;;;;;7.75;2.50;;;4.90;99.90;;;;;;4921783;29;20086;-72
2022/11/21 05:48:53;;;;;;;9.02;2.72;;;4.90;99.90;;;;;;4929460;28;20416;-72
2022/11/21 05:51:20;;;;;;;13.00;2.53;;;5.00;99.90;;;;;;4919752;29;20380;-72
2022/11/21 05:53:46;;;;;;;8.05;2.35;;;5.10;99.90;;;;;;4922822;29;20520;-72
2022/11/21 05:56:17;;;;;;;7.47;2.58;;;5.30;99.90;;;;;;4921322;29;20047;-71
2022/11/21 05:58:44;;;;;;;13.93;2.50;;;5.30;99.90;;;;;;4916729;29;20031;-72
2022/11/21 06:01:11;;;;;;;7.50;2.15;;;5.40;99.90;;;;;;4920912;29;20297;-72
2022/11/21 06:03:38;;;;;;;7.70;1.65;;;5.60;99.90;;;;;;4917173;29;20124;-72
2022/11/21 06:06:12;;;;;;;16.95;2.70;;;5.70;99.90;;;;;;4919927;29;20164;-71
2022/11/21 06:08:44;;;;;;;8.40;2.10;;;5.80;99.90;;;;;;4921640;29;20042;-72
2022/11/21 06:11:12;;;;;;;7.90;1.98;;;5.80;99.90;;;;;;4919341;29;20031;-72
2022/11/21 06:13:39;;;;;;;10.00;2.50;;;5.70;99.90;;;;;;4921843;29;20051;-72
2022/11/21 06:16:12;;;;;;;8.25;1.95;;;5.80;99.90;;;;;;4917617;29;20082;-72
2022/11/21 06:18:39;;;;;;;9.35;1.98;;;5.70;99.90;;;;;;4919103;29;20215;-71
2022/11/21 06:21:15;;;;;;;10.77;1.80;;;5.80;99.90;;;;;;4918627;29;20488;-71
2022/11/21 06:23:41;;;;;;;12.18;1.70;;;5.80;99.90;;;;;;4920264;29;20036;-71
2022/11/21 06:26:12;;;;;;;9.98;1.90;;;5.80;99.90;;;;;;4913869;29;20043;-71
2022/11/21 06:28:39;;;;;;;11.20;1.80;;;5.90;99.90;;;;;;4917151;29;20019;-71
2022/11/21 06:31:12;;;;;;;8.23;1.70;;;6.00;99.90;;;;;;4918027;29;20035;-71
2022/11/21 06:33:39;;;;;;;9.00;2.85;;;6.00;99.90;;;;;;4917692;29;20039;-71
2022/11/21 06:36:10;;;;;;;6.05;1.65;;;6.10;99.90;;;;;;4917638;29;20032;-71
2022/11/21 06:38:36;;;;;;;4.80;1.88;;;6.10;99.90;;;;;;4917652;29;20031;-70
2022/11/21 06:41:06;;;;;;;8.05;2.47;;;6.30;99.90;;;;;;4916931;29;20459;-71
2022/11/21 06:43:32;;;;;;;4.15;1.50;;;6.20;99.90;;;;;;4917875;29;20036;-71
2022/11/21 06:45:57;;;;;;;11.23;2.42;;;6.30;99.90;;;;;;4916956;29;20046;-71
2022/11/21 06:48:23;;;;;;;9.52;1.80;;;6.20;99.90;;;;;;4920070;29;20152;-71
2022/11/21 06:50:49;;;;;;;7.70;1.63;;;6.10;99.90;;;;;;4918556;29;20023;-71
2022/11/21 06:53:15;;;;;;;9.23;2.05;;;6.10;99.90;;;;;;4921328;29;20051;-71
2022/11/21 06:55:41;;;;;;;7.28;1.95;;;6.00;99.90;;;;;;4919524;29;20083;-71
2022/11/21 06:58:06;;;;;;;11.52;1.98;;;5.90;99.90;;;;;;4917782;29;20411;-71
2022/11/21 07:00:32;;;;;;;5.57;1.77;;;6.00;99.90;;;;;;4918025;29;20376;-71
2022/11/21 07:03:02;;;;;;;8.73;1.92;;;5.90;99.90;;;;;;4931766;29;20034;-72
2022/11/21 07:05:28;;;;;;;12.32;2.03;;;6.00;99.90;;;;;;4912115;29;20052;-71
2022/11/21 07:07:58;;;;;;;12.93;1.80;;;6.00;99.90;;;;;;4913440;29;20043;-70
2022/11/21 07:10:24;;;;;;;8.48;2.38;;;6.10;99.90;;;;;;4915287;29;20173;-70
2022/11/21 07:15:34;;;;;;;8.00;1.83;;;6.10;99.90;;;;;;4904667;29;20126;-72
2022/11/21 07:18:00;;;;;;;8.55;1.85;;;6.20;99.90;;;;;;4915885;29;20075;-71
2022/11/21 07:20:26;;;;;;;10.82;2.15;;;6.20;99.90;;;;;;4917986;29;20047;-71
2022/11/21 07:22:55;;;;;;;5.40;2.10;;;6.10;99.90;;;;;;4917370;29;20122;-70
2022/11/21 07:25:21;;;;;;;6.90;1.90;;;6.10;99.90;;;;;;4917150;29;20034;-70
2022/11/21 07:27:47;;;;;;;10.27;2.50;;;6.10;99.90;;;;;;4912495;29;20487;-70
2022/11/21 07:30:13;;;;;;;7.88;1.98;;;6.10;99.90;;;;;;4909307;29;20437;-70
2022/11/21 07:32:39;;;;;;;9.45;1.90;;;6.20;99.90;;;;;;4569127;28;10000441;-71
2022/11/21 07:35:05;;;;;;;9.10;1.83;;;6.30;99.90;;;;;;4906130;29;20043;-71
2022/11/21 07:37:31;;;;;;;7.72;1.52;;;6.20;99.90;;;;;;4910885;29;20149;-71
2022/11/21 07:39:56;;;;;;;7.47;1.73;;;6.20;99.90;;;;;;4914731;29;20044;-71
2022/11/21 07:42:22;;;;;;;8.38;1.75;;;6.20;99.90;;;;;;4910848;29;20086;-71
2022/11/21 07:44:48;;;;;;;9.38;1.98;;;6.20;99.90;;;;;;4911910;29;20399;-70
2022/11/21 07:47:13;;;;;;;8.00;1.75;;;6.20;99.90;;;;;;4917745;29;20039;-71
2022/11/21 07:49:39;;;;;;;9.18;2.22;;;6.20;99.90;;;;;;4915691;29;20326;-71
2022/11/21 07:52:05;;;;;;;6.68;1.77;;;6.40;99.90;;;;;;4912195;29;20059;-71
2022/11/21 07:54:31;;;;;;;7.20;1.67;;;6.40;99.90;;;;;;4909745;29;20428;-71
2022/11/21 07:56:56;;;;;;;15.20;2.13;;;6.50;99.90;;;;;;4911454;29;20039;-71
2022/11/21 07:59:22;;;;;;;7.95;1.88;;;6.40;99.90;;;;;;4912867;29;20053;-71
2022/11/21 08:01:50;;;;;;;6.60;2.00;;;6.40;99.90;;;;;;4915635;29;20182;-70
2022/11/21 08:04:16;;;;;;;12.90;1.98;;;6.50;99.90;;;;;;4918009;29;20032;-70
2022/11/21 08:06:42;;;;;;;12.73;2.25;;;6.60;99.90;;;;;;4913550;29;20031;-71
2022/11/21 08:09:08;;;;;;;9.65;2.20;;;6.70;99.90;;;;;;4920862;29;20028;-71
2022/11/21 08:11:35;;;;;;;9.80;1.60;;;6.80;99.90;;;;;;4914779;29;20107;-70
2022/11/21 08:14:01;;;;;;;4.78;1.98;;;6.80;99.90;;;;;;4916794;29;20044;-71
2022/11/21 08:16:28;;;;;;;10.02;2.58;;;6.80;99.90;;;;;;4907922;29;20040;-71
2022/11/21 08:18:53;;;;;;;14.07;2.47;;;6.80;99.90;;;;;;4915590;29;20039;-71
2022/11/21 08:21:19;;;;;;;17.08;2.22;;;6.90;99.90;;;;;;4916396;29;20440;-71
2022/11/21 08:23:45;;;;;;;12.00;1.85;;;7.00;99.90;;;;;;4913286;29;20032;-71
2022/11/21 08:26:10;;;;;;;13.90;2.50;;;7.10;99.90;;;;;;4918716;29;20454;-71
2022/11/21 08:28:36;;;;;;;16.13;1.75;;;7.20;99.90;;;;;;4917797;29;20044;-71
2022/11/21 08:31:05;;;;;;;19.02;2.22;;;7.30;99.90;;;;;;4915249;29;20102;-71
2022/11/21 08:33:31;;;;;;;16.52;2.22;;;7.40;99.90;;;;;;4908524;29;20050;-70
2022/11/21 08:35:57;;;;;;;9.65;2.28;;;7.40;99.90;;;;;;4906154;29;20043;-70
2022/11/21 08:38:23;;;;;;;9.05;1.90;;;7.60;99.90;;;;;;4899037;29;20059;-71
2022/11/21 08:42:01;;;;;;;23.35;2.47;;;7.70;99.90;;;;;;4905234;29;20032;-71
2022/11/21 08:43:37;;;;;;;13.50;2.20;;;7.80;99.90;;;;;;4907915;29;20035;-70
2022/11/21 08:46:02;;;;;;;15.23;2.10;;;7.90;99.90;;;;;;4898996;29;20027;-71
2022/11/21 08:48:28;;;;;;;17.13;2.15;;;7.80;99.90;;;;;;4898094;29;20527;-71
2022/11/21 08:50:56;;;;;;;17.08;2.33;;;8.00;99.90;;;;;;4920411;29;20535;-71
2022/11/21 08:53:22;;;;;;;18.90;2.83;;;8.10;99.90;;;;;;4922551;28;20079;-71
2022/11/21 08:55:47;;;;;;;20.77;2.55;;;8.10;99.90;;;;;;4917711;29;20127;-70
2022/11/21 08:58:13;;;;;;;21.83;2.50;;;8.10;99.90;;;;;;4907976;29;20606;-71
2022/11/21 09:00:38;;;;;;;16.58;2.60;;;8.10;99.90;;;;;;4907579;29;20058;-71
2022/11/21 09:03:04;;;;;;;20.65;2.70;;;8.20;99.90;;;;;;4910066;29;20066;-70
2022/11/21 09:05:31;;;;;;;10.82;1.92;;;8.30;99.90;;;;;;4911890;29;20043;-70
2022/11/21 09:07:57;;;;;;;14.85;2.10;;;8.40;99.90;;;;;;4908170;29;20102;-70
2022/11/21 09:10:24;;;;;;;20.98;3.33;;;8.60;99.90;;;;;;4905816;29;20507;-70
2022/11/21 09:12:49;;;;;;;22.55;3.63;;;8.70;99.90;;;;;;4911259;29;20043;-70
2022/11/21 09:18:03;;;;;;;12.20;2.40;;;8.90;99.90;;;;;;4908952;29;20102;-70
2022/11/21 09:20:36;;;;;;;20.98;3.20;;;9.10;99.90;;;;;;4915501;29;20069;-70
2022/11/21 09:23:07;;;;;;;26.80;3.65;;;9.20;99.90;;;;;;4908860;29;20036;-70
2022/11/21 09:25:33;;;;;;;26.23;3.38;;;9.40;99.90;;;;;;4913518;29;20035;-70
2022/11/21 09:28:01;;;;;;;25.38;3.53;;;9.50;99.90;;;;;;4918229;29;20028;-71
2022/11/21 09:30:26;;;;;;;23.48;3.78;;;9.70;99.90;;;;;;4914682;29;20558;-70
2022/11/21 09:32:52;;;;;;;23.35;4.20;;;9.70;99.90;;;;;;4914311;29;20138;-70
2022/11/21 09:35:19;;;;;;;21.90;3.20;;;9.80;99.90;;;;;;4909014;29;20059;-70
2022/11/21 09:37:44;;;;;;;29.17;3.75;;;9.80;99.90;;;;;;4906864;29;20500;-69
2022/11/21 09:40:17;;;;;;;28.63;3.25;;;10.00;99.90;;;;;;4916990;29;20039;-70
2022/11/21 09:43:14;;;;;;;23.67;3.08;;;10.00;99.90;;;;;;4919746;29;20032;-70
2022/11/21 09:45:54;;;;;;;28.15;4.55;;;10.10;99.90;;;;;;4920603;29;20028;-70
2022/11/21 09:48:30;;;;;;;15.80;2.38;;;10.20;99.90;;;;;;4903223;29;20040;-70
2022/11/21 09:51:06;;;;;;;22.77;3.15;;;10.20;99.90;;;;;;4921248;29;20416;-70
2022/11/21 09:53:50;;;;;;;18.27;2.80;;;10.20;99.90;;;;;;4918683;29;20047;-69
2022/11/21 09:56:22;;;;;;;25.38;3.65;;;10.10;99.90;;;;;;4919302;29;20043;-70
2022/11/21 09:59:03;;;;;;;19.25;2.70;;;10.10;99.90;;;;;;4918836;29;20090;-72
2022/11/21 10:01:29;;;;;;;31.73;3.58;;;10.10;99.90;;;;;;4920670;29;20151;-71
2022/11/21 10:03:55;;;;;;;22.02;3.35;;;10.10;99.90;;;;;;4920413;29;20360;-71
2022/11/21 10:06:27;;;;;;;19.48;3.00;;;10.10;99.90;;;;;;5295821;23;20043;-75
2022/11/21 10:09:14;;;;;;;27.30;2.92;;;10.00;99.90;;;;;;4927742;28;20380;-75
2022/11/21 10:15:02;;;;;;;20.35;2.80;;;9.70;99.90;;;;;;4936056;29;20393;-76
2022/11/21 10:17:51;;;;;;;19.83;3.10;;;9.60;99.90;;;;;;4931672;28;20452;-73
2022/11/21 10:20:45;;;;;;;20.60;3.70;;;9.50;99.90;;;;;;4932540;28;20514;-75
2022/11/21 10:23:10;;;;;;;32.10;4.25;;;9.50;99.90;;;;;;4939008;28;20037;-75
2022/11/21 10:25:37;;;;;;;32.58;5.35;;;9.50;99.90;;;;;;4946301;28;20071;-75
2022/11/21 10:28:09;;;;;;;41.88;5.80;;;9.50;99.90;;;;;;4946233;28;20027;-74
2022/11/21 10:30:38;;;;;;;33.03;5.15;;;9.60;99.90;;;;;;4937884;28;20034;-75
2022/11/21 10:33:10;;;;;;;29.25;4.45;;;9.70;99.90;;;;;;4930096;28;20031;-75
2022/11/21 10:35:44;;;;;;;31.42;3.90;;;9.80;99.90;;;;;;4940901;28;20054;-75
2022/11/21 10:38:22;;;;;;;39.75;4.00;;;9.80;99.90;;;;;;4936260;28;20480;-75
2022/11/21 10:41:08;;;;;;;38.88;4.32;;;9.90;99.90;;;;;;4938660;28;20058;-73
2022/11/21 10:46:27;;;;;;;38.13;3.85;;;10.00;99.90;;;;;;4936723;28;20057;-74
2022/11/21 10:49:00;;;;;;;22.77;3.80;;;10.00;99.90;;;;;;4938012;28;20028;-73
2022/11/21 10:51:54;;;;;;;34.03;3.92;;;10.00;99.90;;;;;;4934456;28;20102;-75
2022/11/21 10:54:32;;;;;;;25.67;3.13;;;10.00;99.90;;;;;;4944990;28;20119;-74
2022/11/21 10:57:15;;;;;;;34.78;4.53;;;10.00;99.90;;;;;;4929136;29;20389;-75
2022/11/21 10:59:58;;;;;;;16.52;2.88;;;10.00;99.90;;;;;;4943765;28;20397;-75
2022/11/21 11:05:21;;;;;;;28.17;4.18;;;10.10;99.90;;;;;;5274323;23;20059;-75
2022/11/21 11:08:05;;;;;;;24.08;4.40;;;10.10;99.90;;;;;;4929166;28;20537;-76
2022/11/21 11:10:37;;;;;;;31.67;4.05;;;10.10;99.90;;;;;;4938206;28;20039;-77
2022/11/21 11:13:33;;;;;;;29.67;4.53;;;10.00;99.90;;;;;;4254420;28;10000254;-77
2022/11/21 11:16:09;;;;;;;23.70;3.67;;;10.10;99.90;;;;;;4940276;28;20043;-76
2022/11/21 11:18:39;;;;;;;23.25;3.17;;;10.00;99.90;;;;;;4937352;28;20043;-76
2022/11/21 11:21:20;;;;;;;32.67;4.37;;;10.10;99.90;;;;;;4938689;28;20031;-76
2022/11/21 11:23:48;;;;;;;32.33;4.22;;;10.00;99.90;;;;;;4940838;28;20398;-75
2022/11/21 11:26:26;;;;;;;25.45;3.47;;;10.00;99.90;;;;;;4930256;28;20046;-75
2022/11/21 11:28:54;;;;;;;27.38;4.13;;;10.00;99.90;;;;;;4938649;28;20023;-74
2022/11/21 11:31:20;;;;;;;25.27;3.53;;;9.90;99.90;;;;;;4932591;28;20085;-75
2022/11/21 11:33:52;;;;;;;33.75;3.90;;;9.90;99.90;;;;;;4933067;28;20061;-75
2022/11/21 11:36:36;;;;;;;19.48;3.25;;;9.80;99.90;;;;;;4932023;28;20034;-75
2022/11/21 11:39:13;;;;;;;26.48;3.63;;;9.80;99.90;;;;;;4933735;28;20438;-75
2022/11/21 11:47:53;;;;;;;28.88;4.53;;;9.70;99.90;;;;;;4922983;29;20116;-75
2022/11/21 11:50:29;;;;;;;26.58;4.25;;;9.60;99.90;;;;;;4930144;28;20107;-75
2022/11/21 11:52:58;;;;;;;22.60;4.03;;;9.60;99.90;;;;;;4931306;28;20285;-76
2022/11/21 11:55:44;;;;;;;24.33;3.85;;;9.60;99.90;;;;;;4931955;28;20128;-76
2022/11/21 11:58:23;;;;;;;36.55;4.70;;;9.60;99.90;;;;;;4940755;28;20170;-76
2022/11/21 12:01:02;;;;;;;36.95;4.28;;;9.50;99.90;;;;;;4939206;28;20047;-76
2022/11/21 12:03:49;;;;;;;27.92;3.30;;;9.50;99.90;;;;;;4942935;28;20509;-75
2022/11/21 12:06:25;;;;;;;23.20;3.47;;;9.50;99.90;;;;;;4938983;28;20401;-75
2022/11/21 12:08:53;;;;;;;16.90;2.90;;;9.40;99.90;;;;;;4931986;28;20032;-76
2022/11/21 12:17:09;;;;;;;19.20;3.25;;;9.30;99.90;;;;;;4933266;28;20059;-75
2022/11/21 12:19:36;;;;;;;11.02;1.73;;;9.10;99.90;;;;;;4933343;29;20039;-76
2022/11/21 12:22:05;;;;;;;16.10;1.85;;;9.00;99.90;;;;;;4938457;28;20205;-76
2022/11/21 12:24:32;;;;;;;13.23;1.60;;;8.90;99.90;;;;;;4944602;28;20039;-75
2022/11/21 12:27:23;;;;;;;18.77;2.97;;;8.80;99.90;;;;;;4948325;28;20030;-76
2022/11/21 12:30:09;;;;;;;12.32;1.90;;;8.70;99.90;;;;;;4947292;28;20042;-75
2022/11/21 12:32:48;;;;;;;17.85;1.90;;;8.50;99.90;;;;;;4944001;28;20027;-75
2022/11/21 12:35:13;;;;;;;8.98;1.65;;;8.50;99.90;;;;;;4946231;28;20051;-75
2022/11/21 12:37:58;;;;;;;9.65;1.92;;;8.40;99.90;;;;;;4946408;28;20109;-74
2022/11/21 12:40:23;;;;;;;15.73;2.67;;;8.30;99.90;;;;;;4941826;28;20316;-76
2022/11/21 12:43:16;;;;;;;12.18;2.10;;;8.20;99.90;;;;;;4938515;28;20027;-76
2022/11/21 12:45:56;;;;;;;8.88;1.75;;;8.10;99.90;;;;;;4936472;28;20028;-77
2022/11/21 12:54:44;;;;;;;12.40;1.95;;;7.90;99.90;;;;;;4937546;28;20065;-74
2022/11/21 12:57:11;;;;;;;13.05;2.28;;;7.90;99.90;;;;;;4937227;28;20033;-74
2022/11/21 13:00:33;;;;;;;15.57;2.08;;;7.80;99.90;;;;;;4940768;29;20015;-74
2022/11/21 13:03:33;;;;;;;6.72;1.48;;;7.80;99.90;;;;;;4887198;29;20634;-73
2022/11/21 13:06:00;;;;;;;7.85;1.77;;;7.80;99.90;;;;;;4884247;29;20492;-74
2022/11/21 13:08:30;;;;;;;12.65;1.85;;;7.80;99.90;;;;;;4923697;28;20039;-74
2022/11/21 13:13:55;;;;;;;12.50;1.23;;;7.70;99.90;;;;;;4936821;28;20045;-75
2022/11/21 13:16:36;;;;;;;9.20;1.65;;;7.70;99.90;;;;;;4940705;28;20042;-75
2022/11/21 13:19:16;;;;;;;9.00;1.52;;;7.70;99.90;;;;;;4943530;23;20495;-72
2022/11/21 13:21:48;;;;;;;12.75;2.00;;;7.60;99.90;;;;;;4919258;28;20829;-72
2022/11/21 13:24:45;;;;;;;12.15;1.52;;;7.70;99.90;;;;;;4919170;28;20039;-72
2022/11/21 13:27:43;;;;;;;11.05;1.50;;;7.70;99.90;;;;;;4928105;28;20754;-72
2022/11/21 13:30:10;;;;;;;14.60;2.05;;;7.80;99.90;;;;;;4933682;28;20035;-72
2022/11/21 13:32:42;;;;;;;16.05;1.98;;;7.90;99.90;;;;;;4930233;28;20211;-70
2022/11/21 13:35:48;;;;;;;13.60;1.80;;;7.90;99.90;;;;;;4918456;28;20445;-72
2022/11/21 13:38:14;;;;;;;14.10;1.55;;;7.90;99.90;;;;;;4902675;28;20062;-72
2022/11/21 13:42:56;;;;;;;19.10;2.35;;;8.00;99.90;;;;;;4921902;28;20078;-71
2022/11/21 13:43:29;;;;;;;11.55;2.00;;;8.00;99.90;;;;;;4927205;28;20039;-71